createdAt,value
2019-05-06T00:03:14.450Z,4.47
2019-05-06T00:08:17.870Z,5.00
2019-05-06T00:13:21.266Z,4.50
2019-05-06T00:18:24.683Z,3.83
2019-05-06T00:23:32.452Z,4.37
2019-05-06T00:28:37.501Z,3.90
2019-05-06T00:33:40.921Z,4.87
2019-05-06T00:38:46.045Z,3.90
2019-05-06T00:43:49.453Z,5.43
2019-05-06T00:48:54.260Z,3.37
2019-05-06T00:53:59.512Z,3.90
2019-05-06T00:59:03.986Z,4.27
2019-05-06T01:04:07.485Z,4.43
2019-05-06T01:09:14.080Z,4.73
2019-05-06T01:14:35.349Z,5.17
2019-05-06T01:19:38.880Z,4.53
2019-05-06T01:24:43.933Z,5.40
2019-05-06T01:29:47.492Z,4.20
2019-05-06T01:34:50.911Z,4.80
2019-05-06T01:40:05.376Z,5.20
2019-05-06T01:45:10.059Z,4.77
2019-05-06T01:50:14.114Z,4.90
2019-05-06T01:55:17.690Z,5.90
2019-05-06T02:00:23.727Z,5.37
2019-05-06T02:05:27.331Z,6.10
2019-05-06T02:10:30.774Z,5.53
2019-05-06T02:15:34.635Z,5.57
2019-05-06T02:20:39.751Z,5.70
2019-05-06T02:25:44.814Z,5.63
2019-05-06T02:30:54.829Z,5.60
2019-05-06T02:35:59.499Z,6.43
2019-05-06T02:41:03.675Z,6.23
2019-05-06T02:46:07.267Z,7.50
2019-05-06T02:51:13.333Z,5.97
2019-05-06T02:56:17.028Z,7.40
2019-05-06T03:01:23.353Z,5.93
2019-05-06T03:06:26.320Z,6.50
2019-05-06T03:11:29.748Z,5.13
2019-05-06T03:16:33.596Z,5.60
2019-05-06T03:21:45.012Z,6.80
2019-05-06T03:26:53.398Z,5.87
2019-05-06T03:31:56.959Z,5.77
2019-05-06T03:37:00.535Z,6.87
2019-05-06T03:42:04.789Z,6.57
2019-05-06T03:47:10.020Z,6.37
2019-05-06T03:52:13.723Z,6.63
2019-05-06T03:57:18.673Z,6.27
2019-05-06T04:02:24.026Z,6.77
2019-05-06T04:07:28.056Z,7.20
2019-05-06T04:12:34.621Z,6.37
2019-05-06T04:17:48.829Z,7.53
2019-05-06T04:23:06.433Z,6.47
2019-05-06T04:28:17.891Z,7.10
2019-05-06T04:33:23.673Z,8.43
2019-05-06T04:38:27.078Z,8.27
2019-05-06T04:43:33.659Z,7.57
2019-05-06T04:48:36.022Z,7.00
2019-05-06T04:53:39.434Z,6.73
2019-05-06T04:58:43.924Z,7.70
2019-05-06T05:03:47.554Z,6.63
2019-05-06T05:08:53.202Z,8.53
2019-05-06T05:14:02.834Z,11.43
2019-05-06T05:19:12.106Z,11.17
2019-05-06T05:24:15.463Z,13.47
2019-05-06T05:29:18.927Z,10.33
2019-05-06T05:34:26.648Z,10.40
2019-05-06T05:39:27.670Z,9.63
2019-05-06T05:44:32.744Z,8.33
2019-05-06T05:49:37.829Z,7.53
2019-05-06T05:54:42.354Z,7.77
2019-05-06T05:59:45.989Z,7.70
2019-05-06T06:04:54.803Z,8.80
2019-05-06T06:10:02.705Z,8.23
2019-05-06T06:15:08.969Z,8.83
2019-05-06T06:20:32.754Z,7.87
2019-05-06T06:25:36.787Z,7.50
2019-05-06T06:30:47.743Z,8.63
2019-05-06T06:35:55.401Z,8.27
2019-05-06T06:40:58.874Z,6.80
2019-05-06T06:46:02.555Z,7.00
2019-05-06T06:51:06.077Z,8.93
2019-05-06T06:56:21.880Z,10.07
2019-05-06T07:01:29.399Z,7.60
2019-05-06T07:06:34.523Z,8.00
2019-05-06T07:11:38.093Z,7.07
2019-05-06T07:16:43.049Z,6.97
2019-05-06T07:21:52.258Z,7.17
2019-05-06T07:26:59.886Z,6.93
2019-05-06T07:32:03.314Z,7.13
2019-05-06T07:37:06.728Z,6.87
2019-05-06T07:42:17.822Z,6.87
2019-05-06T07:47:23.952Z,6.87
2019-05-06T07:52:27.572Z,7.50
2019-05-06T07:57:32.981Z,7.53
2019-05-06T08:02:36.193Z,8.53
2019-05-06T08:07:39.613Z,8.53
2019-05-06T08:12:43.049Z,7.90
2019-05-06T08:17:46.475Z,8.87
2019-05-06T08:23:03.556Z,8.17
2019-05-06T08:28:07.011Z,8.17
2019-05-06T08:33:12.718Z,6.57
2019-05-06T08:38:15.656Z,7.17
2019-05-06T08:43:19.089Z,7.47
2019-05-06T08:48:22.515Z,6.80
2019-05-06T08:53:27.579Z,7.73
2019-05-06T08:58:47.442Z,7.90
2019-05-06T09:04:06.421Z,6.77
2019-05-06T09:08:56.975Z,5.80
2019-05-06T09:14:03.199Z,6.10
2019-05-06T09:19:05.927Z,5.93
2019-05-06T09:24:09.409Z,5.10
2019-05-06T09:29:17.311Z,5.37
2019-05-06T09:34:34.392Z,4.73
2019-05-06T09:39:37.944Z,4.40
2019-05-06T09:44:42.880Z,5.03
2019-05-06T09:49:47.973Z,4.30
2019-05-06T09:54:58.727Z,4.97
2019-05-06T10:00:04.573Z,4.83
2019-05-06T10:05:07.443Z,4.70
2019-05-06T10:10:10.991Z,3.98
2019-05-06T10:15:16.163Z,4.03
2019-05-06T10:20:22.201Z,4.73
2019-05-06T10:25:24.952Z,5.23
2019-05-06T10:30:28.385Z,4.07
2019-05-06T10:35:32.380Z,5.47
2019-05-06T10:40:56.238Z,3.50
2019-05-06T10:45:44.112Z,4.17
2019-05-06T10:50:49.478Z,3.73
2019-05-06T10:55:54.800Z,5.03
2019-05-06T11:00:59.872Z,4.17
2019-05-06T11:06:03.299Z,5.10
2019-05-06T11:11:15.346Z,3.93
2019-05-06T11:16:12.975Z,4.07
2019-05-06T11:21:16.522Z,4.27
2019-05-06T11:26:19.944Z,4.37
2019-05-06T11:36:57.653Z,3.90
2019-05-06T11:42:22.821Z,3.80
2019-05-06T11:47:06.251Z,3.90
2019-05-06T11:52:09.683Z,4.77
2019-05-06T11:57:13.108Z,3.70
2019-05-06T12:02:20.904Z,4.03
2019-05-06T12:07:24.877Z,3.17
2019-05-06T12:12:28.482Z,3.90
2019-05-06T12:17:31.899Z,3.53
2019-05-06T12:22:38.242Z,3.00
2019-05-06T12:27:44.175Z,3.30
2019-05-06T12:38:26.715Z,3.47
2019-05-06T12:43:24.386Z,4.20
2019-05-06T12:48:29.502Z,4.17
2019-05-06T12:53:32.938Z,5.33
2019-05-06T12:58:36.361Z,4.43
2019-05-06T13:03:39.880Z,4.20
2019-05-06T13:08:56.642Z,4.93
2019-05-06T13:13:57.404Z,4.37
2019-05-06T13:18:54.962Z,5.43
2019-05-06T13:24:04.622Z,5.30
2019-05-06T13:29:10.027Z,5.80
2019-05-06T13:34:17.665Z,5.33
2019-05-06T13:39:23.773Z,5.10
2019-05-06T13:44:26.330Z,6.97
2019-05-06T13:49:31.468Z,6.90
2019-05-06T13:54:34.991Z,7.43
2019-05-06T13:59:38.447Z,7.80
2019-05-06T14:04:44.226Z,7.40
2019-05-06T14:09:47.116Z,7.97
2019-05-06T14:14:52.738Z,8.40
2019-05-06T14:19:55.703Z,9.67
2019-05-06T14:25:00.788Z,9.77
2019-05-06T14:30:16.710Z,10.90
2019-05-06T14:35:20.232Z,10.07
2019-05-06T14:40:25.340Z,11.77
2019-05-06T14:45:28.797Z,13.80
2019-05-06T14:50:44.424Z,15.63
2019-05-06T14:55:38.920Z,17.07
2019-05-06T15:00:42.687Z,17.60
2019-05-06T15:05:46.112Z,13.00
2019-05-06T15:10:49.699Z,14.17
2019-05-06T15:15:53.281Z,14.53
2019-05-06T15:20:56.727Z,14.33
2019-05-06T15:26:00.183Z,17.30
2019-05-06T15:31:05.248Z,15.97
2019-05-06T15:36:12.709Z,15.20
2019-05-06T15:41:15.500Z,14.60
2019-05-06T15:46:18.938Z,17.07
2019-05-06T15:51:24.007Z,16.93
2019-05-06T15:56:27.434Z,18.03
2019-05-06T16:01:33.211Z,18.20
2019-05-06T16:06:36.048Z,18.57
2019-05-06T16:11:39.474Z,20.27
2019-05-06T16:16:43.102Z,20.10
2019-05-06T16:21:46.530Z,15.77
2019-05-06T16:26:52.216Z,14.30
2019-05-06T16:31:55.198Z,12.60
2019-05-06T16:36:58.652Z,10.83
2019-05-06T16:42:03.616Z,10.03
2019-05-06T16:47:07.297Z,9.33
2019-05-06T16:52:12.903Z,8.47
2019-05-06T16:57:20.237Z,8.50
2019-05-06T17:02:26.659Z,9.40
2019-05-06T17:07:30.158Z,11.83
2019-05-06T17:34:36.336Z,10.70
2019-05-06T17:44:29.656Z,11.97
2019-05-06T17:49:37.370Z,11.63
2019-05-06T17:54:42.899Z,11.60
2019-05-06T17:59:46.274Z,10.43
2019-05-06T18:04:49.863Z,11.70
2019-05-06T18:09:53.332Z,12.17
2019-05-06T18:14:58.292Z,12.07
2019-05-06T18:20:02.956Z,11.27
2019-05-06T18:25:06.889Z,12.93
2019-05-06T18:30:22.401Z,12.17
2019-05-06T18:35:16.361Z,11.23
2019-05-06T18:40:19.935Z,10.87
2019-05-06T18:45:23.449Z,11.67
2019-05-06T18:50:26.904Z,10.80
2019-05-06T18:55:32.546Z,9.77
2019-05-06T19:00:35.791Z,12.10
2019-05-06T19:05:42.940Z,11.13
2019-05-06T19:10:46.499Z,11.10
2019-05-06T19:15:50.016Z,10.87
2019-05-06T19:20:53.889Z,12.60
2019-05-06T19:25:57.307Z,11.70
2019-05-06T19:31:03.834Z,12.27
2019-05-06T19:36:07.323Z,11.40
2019-05-06T19:41:12.688Z,12.70
2019-05-06T19:46:15.916Z,12.80
2019-05-06T19:51:19.398Z,11.60
2019-05-06T19:56:23.310Z,14.93
2019-05-06T20:01:26.864Z,18.40
2019-05-06T20:06:40.641Z,16.33
2019-05-06T20:11:45.013Z,16.43
2019-05-06T20:16:48.529Z,16.03
2019-05-06T20:21:52.678Z,14.20
2019-05-06T20:26:56.287Z,14.93
2019-05-06T20:31:59.710Z,13.83
2019-05-06T20:37:03.232Z,14.83
2019-05-06T20:42:08.574Z,15.17
2019-05-06T20:47:15.142Z,15.93
2019-05-06T20:52:22.999Z,12.90
2019-05-06T20:57:28.294Z,16.70
2019-05-06T21:02:32.662Z,14.53
2019-05-06T21:07:38.953Z,15.97
2019-05-06T21:12:53.241Z,14.47
2019-05-06T21:18:15.540Z,16.37
2019-05-06T21:23:18.961Z,13.30
2019-05-06T21:28:23.735Z,14.17
2019-05-06T21:33:27.413Z,13.87
2019-05-06T21:38:30.840Z,12.73
2019-05-06T21:43:46.029Z,14.17
2019-05-06T21:48:39.432Z,14.27
2019-05-06T21:53:42.857Z,16.30
2019-05-06T21:58:46.277Z,14.67
2019-05-06T22:03:49.701Z,14.57
2019-05-06T22:08:53.197Z,15.73
2019-05-06T22:14:00.756Z,17.13
2019-05-06T22:19:02.547Z,16.03
2019-05-06T22:24:06.163Z,15.03
2019-05-06T22:29:09.589Z,18.43
2019-05-06T22:34:15.842Z,20.23
2019-05-06T22:39:18.612Z,18.93
2019-05-06T22:44:22.807Z,18.23
2019-05-06T22:49:26.255Z,21.90
2019-05-06T22:54:31.893Z,18.63
2019-05-06T22:59:34.858Z,20.60
2019-05-06T23:04:39.992Z,19.20
2019-05-06T23:09:43.484Z,19.50
2019-05-06T23:14:46.897Z,18.57
2019-05-06T23:19:52.704Z,20.80
2019-05-06T23:24:55.485Z,21.93
2019-05-06T23:29:58.903Z,22.87
2019-05-06T23:35:03.283Z,20.40
2019-05-06T23:40:43.389Z,20.83
2019-05-06T23:46:05.403Z,20.60
2019-05-06T23:51:45.284Z,21.53
2019-05-06T23:56:47.559Z,22.83
